WZZ1432 EPKK-LIRF
Flight info
| Callsign | WZZ1432 |
|---|---|
| Flight time | N/A |
| Altitude | 24000 |
| Route | BABKO L856 KOPAT/N0447F380 DCT MAREG DCT RADLY/N0448F390 DCT ROSKA DCT AGOMO DCT GAVRA DCT RITEB |
| Aircraft | A20N/M-SDE2E3FGHIRWXY/LB1 |
Departure
| Time | 2026-05-06 17:11 |
|---|---|
| Airport | Kraków John Paul II International Airport (EPKK) |
Arrival
| Time | N/A |
|---|---|
| Airport | Rome–Fiumicino Leonardo da Vinci International Airport (LIRF) |
| Time | Latitude | Longitude | Altitude | Speed | Heading |
|---|---|---|---|---|---|
| 2026-05-06 16:53 | 50.07489 | 19.80210 | 791 ft | 0 kts | 162° |
| 2026-05-06 17:05 | 50.07485 | 19.80212 | 791 ft | 4 kts | 162° |
| 2026-05-06 17:05 | 50.07455 | 19.80227 | 791 ft | 4 kts | 154° |
| 2026-05-06 17:06 | 50.07439 | 19.80252 | 791 ft | 3 kts | 119° |
| 2026-05-06 17:06 | 50.07438 | 19.80271 | 791 ft | 1 kts | 89° |
| 2026-05-06 17:06 | 50.07482 | 19.80359 | 790 ft | 22 kts | 28° |
| 2026-05-06 17:06 | 50.07631 | 19.80381 | 790 ft | 21 kts | 354° |
| 2026-05-06 17:07 | 50.07756 | 19.80353 | 790 ft | 13 kts | 349° |
| 2026-05-06 17:07 | 50.07837 | 19.80332 | 790 ft | 11 kts | 349° |
| 2026-05-06 17:07 | 50.07844 | 19.80330 | 790 ft | 0 kts | 349° |
| 2026-05-06 17:08 | 50.07849 | 19.80329 | 790 ft | 7 kts | 349° |
| 2026-05-06 17:08 | 50.07944 | 19.80297 | 790 ft | 15 kts | 347° |
| 2026-05-06 17:08 | 50.08007 | 19.80206 | 790 ft | 11 kts | 268° |
| 2026-05-06 17:09 | 50.07998 | 19.80125 | 791 ft | 0 kts | 258° |
| 2026-05-06 17:10 | 50.07993 | 19.80085 | 791 ft | 20 kts | 259° |
| 2026-05-06 17:11 | 50.07920 | 19.79559 | 793 ft | 79 kts | 257° |
| 2026-05-06 17:11 | 50.07756 | 19.78407 | 799 ft | 138 kts | 258° |
| 2026-05-06 17:11 | 50.07535 | 19.76778 | 1046 ft | 154 kts | 258° |
| 2026-05-06 17:11 | 50.07310 | 19.75113 | 1440 ft | 173 kts | 257° |
| 2026-05-06 17:12 | 50.07027 | 19.73109 | 1563 ft | 203 kts | 256° |
| 2026-05-06 17:12 | 50.06704 | 19.70833 | 1827 ft | 227 kts | 256° |